sensor_id;sensor_type;location;lat;lon;timestamp;P1;durP1;ratioP1;P2;durP2;ratioP2
1428;SDS011;708;51.442;7.016;2024-02-15T00:00:29;5.93;;;5.72;;
1428;SDS011;708;51.442;7.016;2024-02-15T00:02:58;5.93;;;5.53;;
1428;SDS011;708;51.442;7.016;2024-02-15T00:05:26;5.13;;;4.93;;
1428;SDS011;708;51.442;7.016;2024-02-15T00:07:52;5.50;;;5.30;;
1428;SDS011;708;51.442;7.016;2024-02-15T00:10:19;5.47;;;5.28;;
1428;SDS011;708;51.442;7.016;2024-02-15T00:12:48;5.68;;;5.47;;
1428;SDS011;708;51.442;7.016;2024-02-15T00:15:15;5.57;;;5.38;;
1428;SDS011;708;51.442;7.016;2024-02-15T00:17:42;4.90;;;4.70;;
1428;SDS011;708;51.442;7.016;2024-02-15T00:20:09;5.63;;;5.43;;
1428;SDS011;708;51.442;7.016;2024-02-15T00:22:37;6.00;;;5.80;;
1428;SDS011;708;51.442;7.016;2024-02-15T00:25:06;5.70;;;5.50;;
1428;SDS011;708;51.442;7.016;2024-02-15T00:27:33;5.40;;;5.20;;
1428;SDS011;708;51.442;7.016;2024-02-15T00:30:00;7.65;;;7.25;;
1428;SDS011;708;51.442;7.016;2024-02-15T00:32:28;7.35;;;7.05;;
1428;SDS011;708;51.442;7.016;2024-02-15T00:34:54;5.90;;;5.70;;
1428;SDS011;708;51.442;7.016;2024-02-15T00:37:21;5.40;;;5.20;;
1428;SDS011;708;51.442;7.016;2024-02-15T00:39:50;6.00;;;5.80;;
1428;SDS011;708;51.442;7.016;2024-02-15T00:42:16;5.80;;;5.60;;
1428;SDS011;708;51.442;7.016;2024-02-15T00:44:44;5.10;;;4.90;;
1428;SDS011;708;51.442;7.016;2024-02-15T00:47:10;6.28;;;6.07;;
1428;SDS011;708;51.442;7.016;2024-02-15T00:49:38;6.22;;;6.03;;
1428;SDS011;708;51.442;7.016;2024-02-15T00:52:05;6.15;;;5.95;;
1428;SDS011;708;51.442;7.016;2024-02-15T00:54:32;7.55;;;7.25;;
1428;SDS011;708;51.442;7.016;2024-02-15T00:57:00;5.40;;;5.20;;
1428;SDS011;708;51.442;7.016;2024-02-15T00:59:26;5.70;;;5.50;;
1428;SDS011;708;51.442;7.016;2024-02-15T01:01:53;6.15;;;5.95;;
1428;SDS011;708;51.442;7.016;2024-02-15T01:04:20;6.65;;;6.45;;
1428;SDS011;708;51.442;7.016;2024-02-15T01:06:47;5.53;;;5.32;;
1428;SDS011;708;51.442;7.016;2024-02-15T01:09:14;5.85;;;5.65;;
1428;SDS011;708;51.442;7.016;2024-02-15T01:11:41;5.82;;;5.63;;
1428;SDS011;708;51.442;7.016;2024-02-15T01:14:09;7.20;;;6.90;;
1428;SDS011;708;51.442;7.016;2024-02-15T01:16:36;7.03;;;6.72;;
1428;SDS011;708;51.442;7.016;2024-02-15T01:19:03;6.57;;;6.38;;
1428;SDS011;708;51.442;7.016;2024-02-15T01:21:30;6.05;;;5.85;;
1428;SDS011;708;51.442;7.016;2024-02-15T01:23:58;6.40;;;6.20;;
1428;SDS011;708;51.442;7.016;2024-02-15T01:26:25;6.00;;;5.80;;
1428;SDS011;708;51.442;7.016;2024-02-15T01:28:52;6.72;;;6.47;;
1428;SDS011;708;51.442;7.016;2024-02-15T01:31:20;5.72;;;5.53;;
1428;SDS011;708;51.442;7.016;2024-02-15T01:33:47;5.63;;;5.43;;
1428;SDS011;708;51.442;7.016;2024-02-15T01:36:14;6.05;;;5.85;;
1428;SDS011;708;51.442;7.016;2024-02-15T01:38:41;5.50;;;5.30;;
1428;SDS011;708;51.442;7.016;2024-02-15T01:41:08;5.85;;;5.65;;
1428;SDS011;708;51.442;7.016;2024-02-15T01:43:35;5.57;;;5.38;;
1428;SDS011;708;51.442;7.016;2024-02-15T01:46:03;5.20;;;5.00;;
1428;SDS011;708;51.442;7.016;2024-02-15T01:48:36;6.15;;;5.95;;
1428;SDS011;708;51.442;7.016;2024-02-15T01:51:06;5.35;;;5.15;;
1428;SDS011;708;51.442;7.016;2024-02-15T01:53:33;5.70;;;5.50;;
1428;SDS011;708;51.442;7.016;2024-02-15T01:56:00;6.05;;;5.85;;
1428;SDS011;708;51.442;7.016;2024-02-15T01:58:27;5.50;;;5.30;;
1428;SDS011;708;51.442;7.016;2024-02-15T02:00:57;5.60;;;5.40;;
1428;SDS011;708;51.442;7.016;2024-02-15T02:03:26;7.03;;;6.75;;
1428;SDS011;708;51.442;7.016;2024-02-15T02:05:54;5.28;;;5.07;;
1428;SDS011;708;51.442;7.016;2024-02-15T02:08:21;5.80;;;5.60;;
1428;SDS011;708;51.442;7.016;2024-02-15T02:10:48;6.75;;;6.53;;
1428;SDS011;708;51.442;7.016;2024-02-15T02:13:16;5.95;;;5.75;;
1428;SDS011;708;51.442;7.016;2024-02-15T02:15:42;6.00;;;5.80;;
1428;SDS011;708;51.442;7.016;2024-02-15T02:18:09;5.55;;;5.35;;
1428;SDS011;708;51.442;7.016;2024-02-15T02:20:36;5.57;;;5.38;;
1428;SDS011;708;51.442;7.016;2024-02-15T02:23:06;8.13;;;7.57;;
1428;SDS011;708;51.442;7.016;2024-02-15T02:25:37;6.03;;;5.82;;
1428;SDS011;708;51.442;7.016;2024-02-15T02:28:04;6.68;;;6.38;;
1428;SDS011;708;51.442;7.016;2024-02-15T02:30:32;6.60;;;6.40;;
1428;SDS011;708;51.442;7.016;2024-02-15T02:32:59;6.65;;;6.45;;
1428;SDS011;708;51.442;7.016;2024-02-15T02:35:27;5.97;;;5.78;;
1428;SDS011;708;51.442;7.016;2024-02-15T02:37:54;6.03;;;5.82;;
1428;SDS011;708;51.442;7.016;2024-02-15T02:40:21;5.97;;;5.78;;
1428;SDS011;708;51.442;7.016;2024-02-15T02:42:50;5.30;;;5.10;;
1428;SDS011;708;51.442;7.016;2024-02-15T02:45:21;6.15;;;5.95;;
1428;SDS011;708;51.442;7.016;2024-02-15T02:47:48;5.40;;;5.20;;
1428;SDS011;708;51.442;7.016;2024-02-15T02:50:15;6.43;;;6.22;;
1428;SDS011;708;51.442;7.016;2024-02-15T02:52:42;6.25;;;6.05;;
1428;SDS011;708;51.442;7.016;2024-02-15T02:55:09;6.00;;;5.80;;
1428;SDS011;708;51.442;7.016;2024-02-15T02:57:36;7.13;;;6.82;;
1428;SDS011;708;51.442;7.016;2024-02-15T03:00:05;5.78;;;5.57;;
1428;SDS011;708;51.442;7.016;2024-02-15T03:02:35;6.80;;;6.60;;
1428;SDS011;708;51.442;7.016;2024-02-15T03:05:03;6.40;;;6.20;;
1428;SDS011;708;51.442;7.016;2024-02-15T03:07:32;5.93;;;5.72;;
1428;SDS011;708;51.442;7.016;2024-02-15T03:09:59;5.85;;;5.65;;
1428;SDS011;708;51.442;7.016;2024-02-15T03:12:26;5.38;;;5.18;;
1428;SDS011;708;51.442;7.016;2024-02-15T03:14:54;4.70;;;4.50;;
1428;SDS011;708;51.442;7.016;2024-02-15T03:17:22;5.03;;;4.82;;
1428;SDS011;708;51.442;7.016;2024-02-15T03:19:49;5.10;;;4.90;;
1428;SDS011;708;51.442;7.016;2024-02-15T03:22:16;7.95;;;7.60;;
1428;SDS011;708;51.442;7.016;2024-02-15T03:24:43;4.35;;;4.15;;
1428;SDS011;708;51.442;7.016;2024-02-15T03:27:09;4.47;;;4.28;;
1428;SDS011;708;51.442;7.016;2024-02-15T03:29:37;5.07;;;4.85;;
1428;SDS011;708;51.442;7.016;2024-02-15T03:32:04;4.07;;;3.90;;
1428;SDS011;708;51.442;7.016;2024-02-15T03:34:33;4.68;;;4.47;;
1428;SDS011;708;51.442;7.016;2024-02-15T03:37:00;4.32;;;4.13;;
1428;SDS011;708;51.442;7.016;2024-02-15T03:39:28;5.90;;;5.70;;
1428;SDS011;708;51.442;7.016;2024-02-15T03:41:55;4.60;;;4.40;;
1428;SDS011;708;51.442;7.016;2024-02-15T03:44:23;5.30;;;5.10;;
1428;SDS011;708;51.442;7.016;2024-02-15T03:46:51;6.15;;;5.80;;
1428;SDS011;708;51.442;7.016;2024-02-15T03:49:18;6.60;;;6.38;;
1428;SDS011;708;51.442;7.016;2024-02-15T03:51:47;5.35;;;5.15;;
1428;SDS011;708;51.442;7.016;2024-02-15T03:54:14;5.50;;;5.30;;
1428;SDS011;708;51.442;7.016;2024-02-15T03:56:46;4.75;;;4.55;;
1428;SDS011;708;51.442;7.016;2024-02-15T03:59:16;5.68;;;5.47;;
1428;SDS011;708;51.442;7.016;2024-02-15T04:01:44;5.80;;;5.60;;
1428;SDS011;708;51.442;7.016;2024-02-15T04:04:12;5.40;;;5.20;;
1428;SDS011;708;51.442;7.016;2024-02-15T04:06:39;5.03;;;4.82;;
1428;SDS011;708;51.442;7.016;2024-02-15T04:09:08;5.07;;;4.88;;
1428;SDS011;708;51.442;7.016;2024-02-15T04:11:35;4.95;;;4.75;;
1428;SDS011;708;51.442;7.016;2024-02-15T04:14:03;5.03;;;4.82;;
1428;SDS011;708;51.442;7.016;2024-02-15T04:16:29;5.43;;;5.22;;
1428;SDS011;708;51.442;7.016;2024-02-15T04:18:58;4.43;;;4.22;;
1428;SDS011;708;51.442;7.016;2024-02-15T04:21:25;5.55;;;5.35;;
1428;SDS011;708;51.442;7.016;2024-02-15T04:23:52;4.63;;;4.43;;
1428;SDS011;708;51.442;7.016;2024-02-15T04:26:21;5.35;;;5.05;;
1428;SDS011;708;51.442;7.016;2024-02-15T04:28:51;5.40;;;5.20;;
1428;SDS011;708;51.442;7.016;2024-02-15T04:31:18;8.77;;;8.38;;
1428;SDS011;708;51.442;7.016;2024-02-15T04:33:46;6.22;;;6.03;;
1428;SDS011;708;51.442;7.016;2024-02-15T04:36:14;5.90;;;5.70;;
1428;SDS011;708;51.442;7.016;2024-02-15T04:38:48;6.55;;;6.35;;
1428;SDS011;708;51.442;7.016;2024-02-15T04:41:15;5.78;;;5.57;;
1428;SDS011;708;51.442;7.016;2024-02-15T04:43:45;6.03;;;5.82;;
1428;SDS011;708;51.442;7.016;2024-02-15T04:46:14;6.63;;;6.32;;
1428;SDS011;708;51.442;7.016;2024-02-15T04:48:41;7.47;;;7.18;;
1428;SDS011;708;51.442;7.016;2024-02-15T04:51:08;6.38;;;6.18;;
1428;SDS011;708;51.442;7.016;2024-02-15T04:53:35;7.00;;;6.70;;
1428;SDS011;708;51.442;7.016;2024-02-15T04:56:03;6.43;;;6.22;;
1428;SDS011;708;51.442;7.016;2024-02-15T04:58:36;6.93;;;6.72;;
1428;SDS011;708;51.442;7.016;2024-02-15T05:01:11;6.63;;;6.43;;
1428;SDS011;708;51.442;7.016;2024-02-15T05:03:39;9.57;;;9.18;;
1428;SDS011;708;51.442;7.016;2024-02-15T05:06:06;9.18;;;8.88;;
1428;SDS011;708;51.442;7.016;2024-02-15T05:08:34;10.45;;;10.05;;
1428;SDS011;708;51.442;7.016;2024-02-15T05:11:02;8.93;;;8.63;;
1428;SDS011;708;51.442;7.016;2024-02-15T05:13:30;8.38;;;8.07;;
1428;SDS011;708;51.442;7.016;2024-02-15T05:15:58;8.43;;;8.13;;
1428;SDS011;708;51.442;7.016;2024-02-15T05:18:26;7.63;;;7.32;;
1428;SDS011;708;51.442;7.016;2024-02-15T05:20:55;7.80;;;7.50;;
1428;SDS011;708;51.442;7.016;2024-02-15T05:23:22;7.82;;;7.53;;
1428;SDS011;708;51.442;7.016;2024-02-15T05:25:49;7.00;;;6.80;;
1428;SDS011;708;51.442;7.016;2024-02-15T05:28:15;6.53;;;6.32;;
1428;SDS011;708;51.442;7.016;2024-02-15T05:30:43;7.57;;;7.28;;
1428;SDS011;708;51.442;7.016;2024-02-15T05:33:09;7.40;;;7.15;;
1428;SDS011;708;51.442;7.016;2024-02-15T05:35:37;7.22;;;7.03;;
1428;SDS011;708;51.442;7.016;2024-02-15T05:38:06;8.02;;;7.72;;
1428;SDS011;708;51.442;7.016;2024-02-15T05:40:33;7.60;;;7.30;;
1428;SDS011;708;51.442;7.016;2024-02-15T05:43:00;7.28;;;7.05;;
1428;SDS011;708;51.442;7.016;2024-02-15T05:45:30;6.50;;;6.20;;
1428;SDS011;708;51.442;7.016;2024-02-15T05:48:02;6.65;;;6.45;;
1428;SDS011;708;51.442;7.016;2024-02-15T05:50:32;6.93;;;6.72;;
1428;SDS011;708;51.442;7.016;2024-02-15T05:53:00;7.82;;;7.53;;
1428;SDS011;708;51.442;7.016;2024-02-15T05:55:26;6.40;;;6.20;;
1428;SDS011;708;51.442;7.016;2024-02-15T05:57:54;7.25;;;6.78;;
1428;SDS011;708;51.442;7.016;2024-02-15T06:00:21;7.32;;;7.07;;
1428;SDS011;708;51.442;7.016;2024-02-15T06:02:48;7.05;;;6.85;;
1428;SDS011;708;51.442;7.016;2024-02-15T06:05:15;8.05;;;7.75;;
1428;SDS011;708;51.442;7.016;2024-02-15T06:07:43;7.20;;;7.00;;
1428;SDS011;708;51.442;7.016;2024-02-15T06:10:12;8.45;;;8.15;;
1428;SDS011;708;51.442;7.016;2024-02-15T06:12:39;6.82;;;6.63;;
1428;SDS011;708;51.442;7.016;2024-02-15T06:15:07;8.60;;;8.30;;
1428;SDS011;708;51.442;7.016;2024-02-15T06:17:39;6.28;;;6.07;;
1428;SDS011;708;51.442;7.016;2024-02-15T06:20:09;6.55;;;6.35;;
1428;SDS011;708;51.442;7.016;2024-02-15T06:22:38;6.40;;;6.20;;
1428;SDS011;708;51.442;7.016;2024-02-15T06:25:05;8.80;;;8.50;;
1428;SDS011;708;51.442;7.016;2024-02-15T06:27:34;6.90;;;6.70;;
1428;SDS011;708;51.442;7.016;2024-02-15T06:30:05;7.53;;;7.25;;
1428;SDS011;708;51.442;7.016;2024-02-15T06:32:50;6.28;;;6.07;;
1428;SDS011;708;51.442;7.016;2024-02-15T06:35:35;6.35;;;6.15;;
1428;SDS011;708;51.442;7.016;2024-02-15T06:38:19;7.78;;;7.47;;
1428;SDS011;708;51.442;7.016;2024-02-15T06:41:03;7.90;;;7.55;;
1428;SDS011;708;51.442;7.016;2024-02-15T06:43:31;7.45;;;7.18;;
1428;SDS011;708;51.442;7.016;2024-02-15T06:45:59;5.65;;;5.45;;
1428;SDS011;708;51.442;7.016;2024-02-15T06:48:27;5.35;;;5.15;;
1428;SDS011;708;51.442;7.016;2024-02-15T06:50:54;5.95;;;5.65;;
1428;SDS011;708;51.442;7.016;2024-02-15T06:53:21;8.10;;;7.80;;
1428;SDS011;708;51.442;7.016;2024-02-15T06:55:47;9.30;;;8.80;;
1428;SDS011;708;51.442;7.016;2024-02-15T06:58:15;9.10;;;8.80;;
1428;SDS011;708;51.442;7.016;2024-02-15T07:00:43;8.75;;;8.45;;
1428;SDS011;708;51.442;7.016;2024-02-15T07:03:10;8.38;;;8.07;;
1428;SDS011;708;51.442;7.016;2024-02-15T07:05:37;9.60;;;9.30;;
1428;SDS011;708;51.442;7.016;2024-02-15T07:08:06;8.48;;;8.18;;
1428;SDS011;708;51.442;7.016;2024-02-15T07:10:36;8.85;;;8.55;;
1428;SDS011;708;51.442;7.016;2024-02-15T07:13:03;8.48;;;8.18;;
1428;SDS011;708;51.442;7.016;2024-02-15T07:15:31;6.82;;;6.63;;
1428;SDS011;708;51.442;7.016;2024-02-15T07:17:59;8.82;;;8.38;;
1428;SDS011;708;51.442;7.016;2024-02-15T07:20:26;8.45;;;8.15;;
1428;SDS011;708;51.442;7.016;2024-02-15T07:22:53;8.23;;;7.93;;
1428;SDS011;708;51.442;7.016;2024-02-15T07:25:19;9.05;;;8.75;;
1428;SDS011;708;51.442;7.016;2024-02-15T07:27:46;7.50;;;7.20;;
1428;SDS011;708;51.442;7.016;2024-02-15T07:30:13;8.23;;;7.93;;
1428;SDS011;708;51.442;7.016;2024-02-15T07:32:40;8.25;;;7.95;;
1428;SDS011;708;51.442;7.016;2024-02-15T07:35:09;9.32;;;9.02;;
1428;SDS011;708;51.442;7.016;2024-02-15T07:37:35;8.80;;;8.50;;
1428;SDS011;708;51.442;7.016;2024-02-15T07:40:02;9.02;;;8.73;;
1428;SDS011;708;51.442;7.016;2024-02-15T07:42:32;8.70;;;8.40;;
1428;SDS011;708;51.442;7.016;2024-02-15T07:45:00;9.07;;;8.77;;
1428;SDS011;708;51.442;7.016;2024-02-15T07:47:26;9.13;;;8.82;;
1428;SDS011;708;51.442;7.016;2024-02-15T07:49:55;8.65;;;8.35;;
1428;SDS011;708;51.442;7.016;2024-02-15T07:52:23;7.60;;;7.30;;
1428;SDS011;708;51.442;7.016;2024-02-15T07:54:49;9.02;;;8.73;;
1428;SDS011;708;51.442;7.016;2024-02-15T07:57:17;7.70;;;7.40;;
1428;SDS011;708;51.442;7.016;2024-02-15T07:59:45;8.90;;;8.60;;
1428;SDS011;708;51.442;7.016;2024-02-15T08:02:13;8.43;;;8.13;;
1428;SDS011;708;51.442;7.016;2024-02-15T08:04:42;9.00;;;8.70;;
1428;SDS011;708;51.442;7.016;2024-02-15T08:07:09;8.65;;;8.30;;
1428;SDS011;708;51.442;7.016;2024-02-15T08:09:38;10.65;;;10.25;;
1428;SDS011;708;51.442;7.016;2024-02-15T08:12:05;9.88;;;9.48;;
1428;SDS011;708;51.442;7.016;2024-02-15T08:14:32;11.35;;;10.80;;
1428;SDS011;708;51.442;7.016;2024-02-15T08:16:58;10.07;;;9.75;;
1428;SDS011;708;51.442;7.016;2024-02-15T08:19:25;10.35;;;10.05;;
1428;SDS011;708;51.442;7.016;2024-02-15T08:21:54;8.38;;;8.07;;
1428;SDS011;708;51.442;7.016;2024-02-15T08:24:21;8.85;;;8.55;;
1428;SDS011;708;51.442;7.016;2024-02-15T08:26:49;7.20;;;6.95;;
1428;SDS011;708;51.442;7.016;2024-02-15T08:29:17;9.30;;;9.00;;
1428;SDS011;708;51.442;7.016;2024-02-15T08:31:44;8.57;;;8.23;;
1428;SDS011;708;51.442;7.016;2024-02-15T08:34:11;8.52;;;8.23;;
1428;SDS011;708;51.442;7.016;2024-02-15T08:36:39;10.15;;;9.85;;
1428;SDS011;708;51.442;7.016;2024-02-15T08:39:06;10.10;;;9.80;;
1428;SDS011;708;51.442;7.016;2024-02-15T08:41:36;9.25;;;8.95;;
1428;SDS011;708;51.442;7.016;2024-02-15T08:44:05;10.73;;;10.32;;
1428;SDS011;708;51.442;7.016;2024-02-15T08:46:36;10.05;;;9.75;;
1428;SDS011;708;51.442;7.016;2024-02-15T08:49:03;10.65;;;10.25;;
1428;SDS011;708;51.442;7.016;2024-02-15T08:51:30;11.20;;;10.80;;
1428;SDS011;708;51.442;7.016;2024-02-15T08:53:57;12.35;;;11.85;;
1428;SDS011;708;51.442;7.016;2024-02-15T08:56:24;11.30;;;10.90;;
1428;SDS011;708;51.442;7.016;2024-02-15T08:58:51;11.57;;;11.18;;
1428;SDS011;708;51.442;7.016;2024-02-15T09:01:19;10.65;;;10.27;;
1428;SDS011;708;51.442;7.016;2024-02-15T09:03:47;12.13;;;11.73;;
1428;SDS011;708;51.442;7.016;2024-02-15T09:06:14;10.50;;;10.15;;
1428;SDS011;708;51.442;7.016;2024-02-15T09:08:40;10.55;;;10.00;;
1428;SDS011;708;51.442;7.016;2024-02-15T09:11:07;9.07;;;8.77;;
1428;SDS011;708;51.442;7.016;2024-02-15T09:13:37;9.65;;;9.35;;
1428;SDS011;708;51.442;7.016;2024-02-15T09:16:04;8.20;;;7.90;;
1428;SDS011;708;51.442;7.016;2024-02-15T09:18:32;11.02;;;10.63;;
1428;SDS011;708;51.442;7.016;2024-02-15T09:20:59;8.82;;;8.52;;
1428;SDS011;708;51.442;7.016;2024-02-15T09:23:26;10.98;;;10.57;;
1428;SDS011;708;51.442;7.016;2024-02-15T09:25:53;10.90;;;10.50;;
1428;SDS011;708;51.442;7.016;2024-02-15T09:28:19;11.13;;;10.73;;
1428;SDS011;708;51.442;7.016;2024-02-15T09:30:47;11.07;;;10.68;;
1428;SDS011;708;51.442;7.016;2024-02-15T09:33:16;12.02;;;11.63;;
1428;SDS011;708;51.442;7.016;2024-02-15T09:35:45;11.50;;;11.10;;
1428;SDS011;708;51.442;7.016;2024-02-15T09:38:12;11.45;;;11.05;;
1428;SDS011;708;51.442;7.016;2024-02-15T09:40:41;11.68;;;11.27;;
1428;SDS011;708;51.442;7.016;2024-02-15T09:43:08;11.15;;;10.75;;
1428;SDS011;708;51.442;7.016;2024-02-15T09:45:38;9.50;;;9.20;;
1428;SDS011;708;51.442;7.016;2024-02-15T09:48:05;9.63;;;9.32;;
1428;SDS011;708;51.442;7.016;2024-02-15T09:50:34;10.80;;;10.40;;
1428;SDS011;708;51.442;7.016;2024-02-15T09:53:03;10.15;;;9.85;;
1428;SDS011;708;51.442;7.016;2024-02-15T09:55:31;10.88;;;10.48;;
1428;SDS011;708;51.442;7.016;2024-02-15T09:58:00;9.27;;;8.98;;
1428;SDS011;708;51.442;7.016;2024-02-15T10:00:31;8.82;;;8.52;;
1428;SDS011;708;51.442;7.016;2024-02-15T10:03:00;9.48;;;9.18;;
1428;SDS011;708;51.442;7.016;2024-02-15T10:05:28;8.88;;;8.57;;
1428;SDS011;708;51.442;7.016;2024-02-15T10:07:56;9.95;;;9.55;;
1428;SDS011;708;51.442;7.016;2024-02-15T10:10:27;8.98;;;8.68;;
1428;SDS011;708;51.442;7.016;2024-02-15T10:12:54;8.75;;;8.45;;
1428;SDS011;708;51.442;7.016;2024-02-15T10:15:27;9.25;;;8.95;;
1428;SDS011;708;51.442;7.016;2024-02-15T10:17:55;9.35;;;9.05;;
1428;SDS011;708;51.442;7.016;2024-02-15T10:20:22;9.23;;;8.93;;
1428;SDS011;708;51.442;7.016;2024-02-15T10:22:50;9.70;;;9.40;;
1428;SDS011;708;51.442;7.016;2024-02-15T10:25:18;9.55;;;9.25;;
1428;SDS011;708;51.442;7.016;2024-02-15T10:27:48;8.15;;;7.85;;
1428;SDS011;708;51.442;7.016;2024-02-15T10:30:16;10.57;;;10.18;;
1428;SDS011;708;51.442;7.016;2024-02-15T10:32:44;8.88;;;8.57;;
1428;SDS011;708;51.442;7.016;2024-02-15T10:35:18;9.23;;;8.93;;
1428;SDS011;708;51.442;7.016;2024-02-15T10:37:46;9.68;;;9.38;;
1428;SDS011;708;51.442;7.016;2024-02-15T10:40:17;9.40;;;9.10;;
1428;SDS011;708;51.442;7.016;2024-02-15T10:42:44;8.35;;;8.05;;
1428;SDS011;708;51.442;7.016;2024-02-15T10:45:14;8.48;;;8.18;;
1428;SDS011;708;51.442;7.016;2024-02-15T10:47:43;7.47;;;7.18;;
1428;SDS011;708;51.442;7.016;2024-02-15T10:50:12;7.50;;;7.20;;
1428;SDS011;708;51.442;7.016;2024-02-15T10:52:43;8.02;;;7.72;;
1428;SDS011;708;51.442;7.016;2024-02-15T10:55:19;8.20;;;7.90;;
1428;SDS011;708;51.442;7.016;2024-02-15T10:57:48;8.15;;;7.85;;
1428;SDS011;708;51.442;7.016;2024-02-15T11:00:19;9.57;;;9.27;;
1428;SDS011;708;51.442;7.016;2024-02-15T11:02:54;9.68;;;9.35;;
1428;SDS011;708;51.442;7.016;2024-02-15T11:05:27;8.50;;;8.20;;
1428;SDS011;708;51.442;7.016;2024-02-15T11:07:59;6.45;;;6.25;;
1428;SDS011;708;51.442;7.016;2024-02-15T11:10:26;8.90;;;8.60;;
1428;SDS011;708;51.442;7.016;2024-02-15T11:12:54;8.10;;;7.80;;
1428;SDS011;708;51.442;7.016;2024-02-15T11:21:09;6.90;;;6.70;;
1428;SDS011;708;51.442;7.016;2024-02-15T11:23:36;7.75;;;7.45;;
1428;SDS011;708;51.442;7.016;2024-02-15T11:26:04;7.20;;;6.90;;
1428;SDS011;708;51.442;7.016;2024-02-15T11:28:36;8.13;;;7.82;;
1428;SDS011;708;51.442;7.016;2024-02-15T11:31:07;8.40;;;8.10;;
1428;SDS011;708;51.442;7.016;2024-02-15T11:33:37;8.73;;;8.43;;
1428;SDS011;708;51.442;7.016;2024-02-15T11:36:05;9.52;;;9.23;;
1428;SDS011;708;51.442;7.016;2024-02-15T11:38:33;11.25;;;10.85;;
1428;SDS011;708;51.442;7.016;2024-02-15T11:41:04;8.93;;;8.63;;
1428;SDS011;708;51.442;7.016;2024-02-15T11:43:45;8.63;;;8.32;;
1428;SDS011;708;51.442;7.016;2024-02-15T11:46:16;9.73;;;9.43;;
1428;SDS011;708;51.442;7.016;2024-02-15T11:48:43;7.90;;;7.60;;
1428;SDS011;708;51.442;7.016;2024-02-15T11:51:11;8.70;;;8.40;;
1428;SDS011;708;51.442;7.016;2024-02-15T11:56:48;9.98;;;9.57;;
1428;SDS011;708;51.442;7.016;2024-02-15T11:59:19;8.95;;;8.65;;
1428;SDS011;708;51.442;7.016;2024-02-15T12:01:58;8.75;;;8.45;;
1428;SDS011;708;51.442;7.016;2024-02-15T12:04:42;7.90;;;7.60;;
1428;SDS011;708;51.442;7.016;2024-02-15T12:07:27;7.32;;;7.03;;
1428;SDS011;708;51.442;7.016;2024-02-15T12:10:15;7.90;;;7.60;;
1428;SDS011;708;51.442;7.016;2024-02-15T12:13:00;7.55;;;7.25;;
1428;SDS011;708;51.442;7.016;2024-02-15T12:15:55;7.90;;;7.60;;
1428;SDS011;708;51.442;7.016;2024-02-15T12:18:41;9.60;;;9.20;;
1428;SDS011;708;51.442;7.016;2024-02-15T12:21:09;11.03;;;8.30;;
1428;SDS011;708;51.442;7.016;2024-02-15T12:23:40;5.20;;;5.00;;
1428;SDS011;708;51.442;7.016;2024-02-15T12:26:07;15.63;;;14.90;;
1428;SDS011;708;51.442;7.016;2024-02-15T12:28:34;8.50;;;8.20;;
1428;SDS011;708;51.442;7.016;2024-02-15T12:31:01;7.93;;;7.63;;
1428;SDS011;708;51.442;7.016;2024-02-15T12:33:31;8.03;;;7.73;;
1428;SDS011;708;51.442;7.016;2024-02-15T12:36:07;10.10;;;7.80;;
1428;SDS011;708;51.442;7.016;2024-02-15T12:38:34;8.57;;;8.27;;
1428;SDS011;708;51.442;7.016;2024-02-15T12:41:03;8.85;;;8.55;;
1428;SDS011;708;51.442;7.016;2024-02-15T12:43:30;8.33;;;8.03;;
1428;SDS011;708;51.442;7.016;2024-02-15T12:45:57;7.13;;;6.83;;
1428;SDS011;708;51.442;7.016;2024-02-15T12:48:24;7.90;;;7.60;;
1428;SDS011;708;51.442;7.016;2024-02-15T12:50:51;8.60;;;8.30;;
1428;SDS011;708;51.442;7.016;2024-02-15T12:53:23;7.10;;;6.80;;
1428;SDS011;708;51.442;7.016;2024-02-15T12:55:54;7.33;;;7.03;;
1428;SDS011;708;51.442;7.016;2024-02-15T12:58:22;7.77;;;7.47;;
1428;SDS011;708;51.442;7.016;2024-02-15T13:00:54;6.70;;;6.40;;
1428;SDS011;708;51.442;7.016;2024-02-15T13:03:23;7.17;;;6.87;;
1428;SDS011;708;51.442;7.016;2024-02-15T13:05:50;7.13;;;6.83;;
1428;SDS011;708;51.442;7.016;2024-02-15T13:08:17;5.90;;;5.70;;
1428;SDS011;708;51.442;7.016;2024-02-15T13:10:50;7.33;;;7.03;;
1428;SDS011;708;51.442;7.016;2024-02-15T13:13:17;6.00;;;5.80;;
1428;SDS011;708;51.442;7.016;2024-02-15T13:15:45;7.37;;;7.07;;
1428;SDS011;708;51.442;7.016;2024-02-15T13:18:12;6.63;;;6.43;;
1428;SDS011;708;51.442;7.016;2024-02-15T13:20:40;7.23;;;6.93;;
1428;SDS011;708;51.442;7.016;2024-02-15T13:23:07;8.07;;;7.77;;
1428;SDS011;708;51.442;7.016;2024-02-15T13:25:40;7.47;;;7.17;;
1428;SDS011;708;51.442;7.016;2024-02-15T13:28:09;7.67;;;7.37;;
1428;SDS011;708;51.442;7.016;2024-02-15T13:30:37;7.53;;;7.23;;
1428;SDS011;708;51.442;7.016;2024-02-15T13:33:06;7.30;;;6.97;;
1428;SDS011;708;51.442;7.016;2024-02-15T13:35:33;7.40;;;6.97;;
1428;SDS011;708;51.442;7.016;2024-02-15T13:37:59;7.27;;;6.97;;
1428;SDS011;708;51.442;7.016;2024-02-15T13:40:27;6.57;;;6.37;;
1428;SDS011;708;51.442;7.016;2024-02-15T13:42:57;7.10;;;6.80;;
1428;SDS011;708;51.442;7.016;2024-02-15T13:45:27;6.47;;;6.27;;
1428;SDS011;708;51.442;7.016;2024-02-15T13:47:57;6.83;;;6.60;;
1428;SDS011;708;51.442;7.016;2024-02-15T13:50:26;6.50;;;6.30;;
1428;SDS011;708;51.442;7.016;2024-02-15T13:52:55;7.50;;;7.20;;
1428;SDS011;708;51.442;7.016;2024-02-15T13:55:22;7.30;;;7.00;;
1428;SDS011;708;51.442;7.016;2024-02-15T13:57:51;7.53;;;7.23;;
1428;SDS011;708;51.442;7.016;2024-02-15T14:00:18;7.40;;;7.10;;
1428;SDS011;708;51.442;7.016;2024-02-15T14:02:50;7.93;;;7.53;;
1428;SDS011;708;51.442;7.016;2024-02-15T14:05:18;6.23;;;6.03;;
1428;SDS011;708;51.442;7.016;2024-02-15T14:07:46;5.97;;;5.77;;
1428;SDS011;708;51.442;7.016;2024-02-15T14:10:14;6.30;;;6.10;;
1428;SDS011;708;51.442;7.016;2024-02-15T14:12:43;6.13;;;5.93;;
1428;SDS011;708;51.442;7.016;2024-02-15T14:15:10;6.57;;;6.37;;
1428;SDS011;708;51.442;7.016;2024-02-15T14:17:36;6.23;;;6.03;;
1428;SDS011;708;51.442;7.016;2024-02-15T14:20:05;6.47;;;6.27;;
1428;SDS011;708;51.442;7.016;2024-02-15T14:22:38;7.17;;;6.87;;
1428;SDS011;708;51.442;7.016;2024-02-15T14:25:05;7.50;;;7.20;;
1428;SDS011;708;51.442;7.016;2024-02-15T14:27:33;7.60;;;7.20;;
1428;SDS011;708;51.442;7.016;2024-02-15T14:30:00;5.90;;;5.70;;
1428;SDS011;708;51.442;7.016;2024-02-15T14:32:45;7.70;;;7.40;;
1428;SDS011;708;51.442;7.016;2024-02-15T14:35:29;7.17;;;6.87;;
1428;SDS011;708;51.442;7.016;2024-02-15T14:37:59;7.30;;;7.00;;
1428;SDS011;708;51.442;7.016;2024-02-15T14:40:28;7.63;;;7.13;;
1428;SDS011;708;51.442;7.016;2024-02-15T14:42:54;7.57;;;7.27;;
1428;SDS011;708;51.442;7.016;2024-02-15T14:45:21;6.17;;;5.97;;
1428;SDS011;708;51.442;7.016;2024-02-15T14:47:48;6.20;;;6.00;;
1428;SDS011;708;51.442;7.016;2024-02-15T14:50:15;6.25;;;6.05;;
1428;SDS011;708;51.442;7.016;2024-02-15T14:52:43;6.10;;;5.90;;
1428;SDS011;708;51.442;7.016;2024-02-15T14:55:10;5.72;;;5.53;;
1428;SDS011;708;51.442;7.016;2024-02-15T14:57:37;5.95;;;5.75;;
1428;SDS011;708;51.442;7.016;2024-02-15T15:00:04;6.05;;;5.85;;
1428;SDS011;708;51.442;7.016;2024-02-15T15:02:36;6.60;;;6.30;;
1428;SDS011;708;51.442;7.016;2024-02-15T15:05:06;7.03;;;6.73;;
1428;SDS011;708;51.442;7.016;2024-02-15T15:07:53;7.20;;;6.90;;
1428;SDS011;708;51.442;7.016;2024-02-15T15:10:38;6.85;;;6.55;;
1428;SDS011;708;51.442;7.016;2024-02-15T15:13:22;6.20;;;6.00;;
1428;SDS011;708;51.442;7.016;2024-02-15T15:15:49;7.13;;;6.82;;
1428;SDS011;708;51.442;7.016;2024-02-15T15:18:16;7.60;;;7.30;;
1428;SDS011;708;51.442;7.016;2024-02-15T15:20:42;7.80;;;7.50;;
1428;SDS011;708;51.442;7.016;2024-02-15T15:23:10;5.75;;;5.55;;
1428;SDS011;708;51.442;7.016;2024-02-15T15:25:41;7.75;;;7.45;;
1428;SDS011;708;51.442;7.016;2024-02-15T15:28:08;6.90;;;6.65;;
1428;SDS011;708;51.442;7.016;2024-02-15T15:30:35;6.05;;;5.85;;
1428;SDS011;708;51.442;7.016;2024-02-15T15:33:02;7.15;;;6.85;;
1428;SDS011;708;51.442;7.016;2024-02-15T15:35:29;7.45;;;7.15;;
1428;SDS011;708;51.442;7.016;2024-02-15T15:37:59;6.10;;;5.90;;
1428;SDS011;708;51.442;7.016;2024-02-15T15:40:28;7.13;;;6.85;;
1428;SDS011;708;51.442;7.016;2024-02-15T15:42:55;7.68;;;7.38;;
1428;SDS011;708;51.442;7.016;2024-02-15T15:45:22;6.43;;;6.15;;